Terminal Aerodrome Forecast
Issued by NWS

Home | Current Version | Previous Version | Text Only | Print | Product List | Glossary Off
Versions: 1 2 3 4 5 6 7 8 9 10 11 12 13 14 15 16 17 18 19 20 21

000
FTUS43 KFGF 251022 AAA
TAFBJI
TAF AMD
KBJI 251022Z 2510/2606 VRB03KT 1/2SM FG SKC
      TEMPO 2511/2513 4SM BR SKC
     FM251300 18005KT P6SM SKC=

USA.gov is the U.S. government's official web portal to all federal, state and local government web resources and services.